4XHSF LLHA-LLHZ
Flight info
| Callsign | 4XHSF |
|---|---|
| Flight time | N/A |
| Altitude | 1200 |
| Route | GALIM DAROM HOTRM BOREN FRDIS SDTYM OLGAH PELEG VINGT SFAIM APOLN ARENA HTZUK KNTRY |
| Aircraft | DR40/L-S/L |
Departure
| Time | 2026-04-27 16:06 |
|---|---|
| Airport | Uri Michaeli Haifa International Airport (LLHA) |
Arrival
| Time | N/A |
|---|---|
| Airport | Herzliya Airport (LLHZ) |
| Time | Latitude | Longitude | Altitude | Speed | Heading |
|---|---|---|---|---|---|
| 2026-04-27 15:53 | 32.81249 | 35.04184 | 20 ft | 0 kts | 250° |
| 2026-04-27 15:59 | 32.81205 | 35.04188 | 19 ft | 16 kts | 159° |
| 2026-04-27 15:59 | 32.81157 | 35.04231 | 20 ft | 4 kts | 68° |
| 2026-04-27 15:59 | 32.81162 | 35.04240 | 20 ft | 0 kts | 59° |
| 2026-04-27 16:02 | 32.81164 | 35.04247 | 20 ft | 8 kts | 68° |
| 2026-04-27 16:02 | 32.81037 | 35.04361 | 20 ft | 41 kts | 162° |
| 2026-04-27 16:03 | 32.80753 | 35.04481 | 20 ft | 43 kts | 164° |
| 2026-04-27 16:03 | 32.80536 | 35.04568 | 16 ft | 17 kts | 183° |
| 2026-04-27 16:03 | 32.80528 | 35.04592 | 16 ft | 17 kts | 338° |
| 2026-04-27 16:03 | 32.80554 | 35.04574 | 17 ft | 0 kts | 336° |
| 2026-04-27 16:05 | 32.80616 | 35.04552 | 19 ft | 27 kts | 340° |
| 2026-04-27 16:05 | 32.80887 | 35.04434 | 57 ft | 49 kts | 340° |
| 2026-04-27 16:05 | 32.81217 | 35.04302 | 163 ft | 51 kts | 344° |
| 2026-04-27 16:05 | 32.81568 | 35.04127 | 253 ft | 57 kts | 339° |
| 2026-04-27 16:06 | 32.81951 | 35.03905 | 365 ft | 61 kts | 338° |
| 2026-04-27 16:06 | 32.82314 | 35.03710 | 574 ft | 55 kts | 336° |
| 2026-04-27 16:06 | 32.82671 | 35.03765 | 698 ft | 65 kts | 45° |
| 2026-04-27 16:06 | 32.82880 | 35.04305 | 737 ft | 76 kts | 62° |
| 2026-04-27 16:07 | 32.82929 | 35.04933 | 844 ft | 90 kts | 107° |
| 2026-04-27 16:07 | 32.82419 | 35.05452 | 924 ft | 101 kts | 144° |
| 2026-04-27 16:07 | 32.81781 | 35.05915 | 956 ft | 110 kts | 147° |
| 2026-04-27 16:07 | 32.81136 | 35.06413 | 1030 ft | 112 kts | 146° |
| 2026-04-27 16:08 | 32.80437 | 35.06927 | 1001 ft | 123 kts | 149° |
| 2026-04-27 16:08 | 32.79675 | 35.07400 | 986 ft | 129 kts | 160° |
| 2026-04-27 16:08 | 32.78866 | 35.07247 | 1017 ft | 116 kts | 227° |
| 2026-04-27 16:08 | 32.78312 | 35.06585 | 983 ft | 114 kts | 231° |
| 2026-04-27 16:09 | 32.77967 | 35.05808 | 899 ft | 99 kts | 293° |
| 2026-04-27 16:09 | 32.79000 | 35.05207 | 469 ft | 74 kts | 341° |
| 2026-04-27 16:09 | 32.79447 | 35.05061 | 392 ft | 64 kts | 336° |
| 2026-04-27 16:10 | 32.80337 | 35.04669 | 97 ft | 70 kts | 342° |
| 2026-04-27 16:10 | 32.81117 | 35.04316 | 35 ft | 52 kts | 341° |